

Wyoming Mesonet
Water Resources Data System and State Climate Office
SEO WACNet, UW USACE UMRB, USDA-ARS, BLM
| Wind | Soil | |||||||||||||||||||
| Temp | Precip | Speed | Dir | Gust | Dir | Humidity | Pressure | Solar | Snow | Temperature (Deg F) | Moisture (%) | |||||||||
| Date Time (MST) | (F) | (in) | (mph) | (deg) | (mph) | (deg) | (%) | (Mbars) | (w/m^2) | (in) | 5cm | 10cm | 20cm | 50cm | 1m | 5cm | 10cm | 20cm | 50cm | 1m |
| 2026-08-30 00:00:00 | 56.50 | 0.00 | 7.49 | 255 | 10.68 | 264 | 66.3 | 833.0 | 0.0 | 0.1 | 65.84 | 67.46 | 69.26 | 67.82 | 66.56 | 7.4% | 8.6% | 7.3% | 5.3% | 8.2% |
| 2026-08-30 01:00:00 | 56.61 | 0.00 | 7.96 | 251 | 12.30 | 269 | 72.0 | 833.0 | 0.0 | 0.1 | 64.94 | 66.92 | 68.90 | 67.82 | 66.56 | 7.4% | 8.5% | 7.2% | 5.3% | 8.4% |
| 2026-08-30 02:00:00 | 54.55 | 0.02 | 2.45 | 299 | 35.41 | 244 | 75.0 | 833.0 | 0.0 | 0.2 | 64.40 | 66.20 | 68.36 | 68.00 | 66.56 | 7.3% | 8.5% | 7.2% | 5.3% | 8.3% |
| 2026-08-30 03:00:00 | 54.61 | 0.00 | 4.75 | 190 | 8.82 | 193 | 74.7 | 833.0 | 0.0 | 0.1 | 63.68 | 65.66 | 68.00 | 67.82 | 66.56 | 7.3% | 8.5% | 7.2% | 5.3% | 8.3% |
| 2026-08-30 04:00:00 | 50.04 | 0.00 | 7.94 | 264 | 9.94 | 258 | 87.5 | 833.0 | 0.0 | 0.2 | 62.60 | 65.12 | 67.64 | 67.82 | 66.56 | 7.2% | 8.5% | 7.2% | 5.3% | 8.4% |
| 2026-08-30 05:00:00 | 52.81 | 0.00 | 9.25 | 226 | 15.53 | 241 | 81.0 | 833.0 | 0.0 | 0.2 | 61.70 | 64.40 | 67.28 | 67.82 | 66.38 | 7.2% | 8.4% | 7.2% | 5.2% | 8.3% |
| 2026-08-30 06:00:00 | 50.47 | 0.00 | 7.70 | 260 | 11.80 | 250 | 84.1 | 833.0 | 13.3 | 0.2 | 60.98 | 63.86 | 66.92 | 67.82 | 66.38 | 7.2% | 8.5% | 7.2% | 5.3% | 8.3% |
| 2026-08-30 07:00:00 | 57.72 | 0.00 | 7.23 | 226 | 10.68 | 253 | 66.6 | 833.0 | 230.2 | 0.3 | 60.44 | 63.14 | 66.38 | 67.82 | 66.38 | 7.1% | 8.4% | 7.2% | 5.3% | 8.3% |
| 2026-08-30 08:00:00 | 62.82 | 0.00 | 6.85 | 247 | 9.57 | 247 | 47.6 | 833.0 | 403.3 | 0.3 | 60.62 | 62.78 | 66.02 | 68.00 | 66.38 | 7.0% | 8.4% | 7.2% | 5.2% | 8.3% |
| 2026-08-30 09:00:00 | 65.21 | 0.00 | 3.61 | 315 | 9.32 | 250 | 43.5 | 833.0 | 218.7 | 0.2 | 62.24 | 62.96 | 65.48 | 67.82 | 66.38 | 7.2% | 8.4% | 7.2% | 5.2% | 8.4% |
| 2026-08-30 10:00:00 | 66.69 | 0.00 | 15.87 | 272 | 36.28 | 278 | 39.9 | 834.0 | 376.5 | 0.2 | 63.86 | 63.68 | 65.30 | 67.82 | 66.38 | 7.2% | 8.4% | 7.2% | 5.3% | 8.4% |
| 2026-08-30 11:00:00 | 70.54 | 0.00 | 15.95 | 248 | 42.86 | 289 | 30.2 | 833.0 | 875.0 | 0.2 | 65.30 | 64.58 | 65.30 | 67.82 | 66.38 | 7.2% | 8.3% | 7.2% | 5.2% | 8.4% |
| 2026-08-30 12:00:00 | 75.24 | 0.00 | 17.72 | 274 | 28.57 | 256 | 22.6 | 833.0 | 1067.0 | 0.3 | 67.64 | 65.30 | 65.48 | 67.82 | 66.38 | 7.4% | 8.4% | 7.2% | 5.2% | 8.4% |
| 2026-08-30 13:00:00 | 74.82 | 0.00 | 17.28 | 279 | 36.78 | 251 | 17.9 | 833.0 | 982.0 | 0.3 | 71.60 | 66.92 | 65.84 | 67.64 | 66.38 | 7.6% | 8.4% | 7.2% | 5.3% | 8.3% |
| 2026-08-30 14:00:00 | 75.81 | 0.00 | 18.43 | 284 | 33.42 | 271 | 14.9 | 833.0 | 877.0 | 0.2 | 74.66 | 68.72 | 66.38 | 67.64 | 66.38 | 7.6% | 8.5% | 7.2% | 5.2% | 8.3% |
| 2026-08-30 15:00:00 | 75.96 | 0.00 | 18.14 | 273 | 30.69 | 273 | 12.1 | 833.0 | 734.1 | 0.1 | 76.46 | 70.34 | 67.10 | 67.64 | 66.38 | 7.7% | 8.5% | 7.2% | 5.2% | 8.2% |
| 2026-08-30 16:00:00 | 74.43 | 0.00 | 20.07 | 286 | 33.91 | 267 | 10.3 | 833.0 | 568.6 | 0.0 | 76.82 | 71.60 | 68.00 | 67.64 | 66.38 | 7.7% | 8.5% | 7.3% | 5.3% | 8.3% |
| 2026-08-30 17:00:00 | 73.35 | 0.00 | 15.49 | 271 | 32.41 | 252 | 11.5 | 833.0 | 372.3 | -0.1 | 75.74 | 72.14 | 68.90 | 67.64 | 66.38 | 7.6% | 8.5% | 7.3% | 5.2% | 8.3% |
| 2026-08-30 18:00:00 | 69.98 | 0.00 | 15.28 | 278 | 26.96 | 270 | 12.2 | 833.0 | 177.0 | -0.2 | 74.12 | 72.14 | 69.62 | 67.64 | 66.38 | 7.5% | 8.5% | 7.2% | 5.2% | 8.4% |
| 2026-08-30 19:00:00 | 65.23 | 0.00 | 9.99 | 234 | 25.97 | 282 | 13.6 | 834.0 | 2.4 | -0.2 | 72.32 | 71.42 | 69.98 | 67.46 | 66.38 | 7.4% | 8.5% | 7.3% | 5.2% | 8.4% |
| 2026-08-30 20:00:00 | 64.62 | 0.00 | 10.85 | 209 | 15.03 | 226 | 14.1 | 834.0 | 0.0 | -0.2 | 70.34 | 70.70 | 70.16 | 67.46 | 66.38 | 7.3% | 8.5% | 7.2% | 5.2% | 8.4% |
| 2026-08-30 21:00:00 | 59.72 | 0.00 | 7.87 | 241 | 16.77 | 212 | 20.2 | 835.0 | 0.0 | -0.3 | 68.54 | 69.80 | 70.16 | 67.46 | 66.38 | 7.3% | 8.4% | 7.3% | 5.2% | 8.4% |
| 2026-08-30 22:00:00 | 59.43 | 0.00 | 10.60 | 241 | 13.42 | 257 | 21.5 | 835.0 | 0.0 | -0.3 | 67.10 | 68.72 | 69.80 | 67.46 | 66.38 | 7.2% | 8.4% | 7.2% | 5.3% | 8.3% |
| 2026-08-30 23:00:00 | 58.68 | 0.00 | 10.71 | 235 | 15.90 | 267 | 23.0 | 835.0 | 0.0 | -0.3 | 65.84 | 67.64 | 69.44 | 67.46 | 66.38 | 7.2% | 8.2% | 7.2% | 5.3% | 8.4% |